sensor_id;sensor_type;location;lat;lon;timestamp;pressure;altitude;pressure_sealevel;temperature;humidity
32067;BME280;18573;47.890;35.066;2022-08-19T02:36:18;99751.70;;;44.06;32.01
32067;BME280;18573;47.890;35.066;2022-08-19T02:38:48;99746.51;;;42.58;33.47
32067;BME280;18573;47.890;35.066;2022-08-19T02:41:23;99739.42;;;42.53;34.46
32067;BME280;18573;47.890;35.066;2022-08-19T02:43:54;99737.84;;;42.27;34.75
32067;BME280;18573;47.890;35.066;2022-08-19T02:46:32;99737.84;;;42.27;34.75
32067;BME280;18573;47.890;35.066;2022-08-19T02:49:04;99732.36;;;42.91;33.11
32067;BME280;18573;47.890;35.066;2022-08-19T02:51:36;99732.36;;;42.91;33.11
32067;BME280;18573;47.890;35.066;2022-08-19T02:54:08;99733.51;;;43.41;33.00
32067;BME280;18573;47.890;35.066;2022-08-19T02:56:38;99732.21;;;43.03;33.43
32067;BME280;18573;47.890;35.066;2022-08-19T02:59:08;99742.12;;;42.82;33.39
32067;BME280;18573;47.890;35.066;2022-08-19T03:01:40;99742.12;;;42.82;33.39
32067;BME280;18573;47.890;35.066;2022-08-19T03:04:12;99750.17;;;42.16;34.66
32067;BME280;18573;47.890;35.066;2022-08-19T03:06:45;99750.17;;;42.16;34.66
32067;BME280;18573;47.890;35.066;2022-08-19T03:09:15;99750.09;;;43.79;32.34
32067;BME280;18573;47.890;35.066;2022-08-19T03:11:44;99745.55;;;43.07;33.40
32067;BME280;18573;47.890;35.066;2022-08-19T03:14:16;99748.55;;;43.60;32.71
32067;BME280;18573;47.890;35.066;2022-08-19T03:16:48;99751.80;;;44.56;31.51
32067;BME280;18573;47.890;35.066;2022-08-19T03:19:19;99758.16;;;44.74;31.15
32067;BME280;18573;47.890;35.066;2022-08-19T03:21:50;99759.29;;;44.45;31.44
32067;BME280;18573;47.890;35.066;2022-08-19T03:24:20;99766.41;;;44.28;31.76
32067;BME280;18573;47.890;35.066;2022-08-19T03:26:52;99764.98;;;44.23;31.56
32067;BME280;18573;47.890;35.066;2022-08-19T03:29:25;99781.92;;;46.37;28.98
32067;BME280;18573;47.890;35.066;2022-08-19T03:31:56;99781.92;;;46.37;28.98
32067;BME280;18573;47.890;35.066;2022-08-19T03:34:30;99774.32;;;46.61;28.37
32067;BME280;18573;47.890;35.066;2022-08-19T03:37:03;99774.32;;;46.61;28.37
32067;BME280;18573;47.890;35.066;2022-08-19T03:39:32;99792.67;;;46.70;28.58
32067;BME280;18573;47.890;35.066;2022-08-19T03:42:01;99792.67;;;46.70;28.58
32067;BME280;18573;47.890;35.066;2022-08-19T03:44:32;99790.44;;;47.51;27.64
32067;BME280;18573;47.890;35.066;2022-08-19T03:47:04;99795.09;;;48.57;26.23
32067;BME280;18573;47.890;35.066;2022-08-19T03:49:33;99795.09;;;48.57;26.23
32067;BME280;18573;47.890;35.066;2022-08-19T03:52:03;99796.73;;;48.24;26.83
32067;BME280;18573;47.890;35.066;2022-08-19T03:54:35;99807.32;;;48.78;26.52
32067;BME280;18573;47.890;35.066;2022-08-19T03:57:06;99809.38;;;48.73;26.53
32067;BME280;18573;47.890;35.066;2022-08-19T03:59:37;99812.19;;;48.37;27.30
32067;BME280;18573;47.890;35.066;2022-08-19T04:02:09;99812.19;;;48.37;27.30
32067;BME280;18573;47.890;35.066;2022-08-19T04:04:42;99808.74;;;49.23;26.24
32067;BME280;18573;47.890;35.066;2022-08-19T04:07:12;99806.23;;;50.87;24.56
32067;BME280;18573;47.890;35.066;2022-08-19T04:09:44;99807.38;;;49.29;25.76
32067;BME280;18573;47.890;35.066;2022-08-19T04:12:13;99809.66;;;49.25;26.04
32067;BME280;18573;47.890;35.066;2022-08-19T04:14:42;99806.16;;;50.76;24.78
32067;BME280;18573;47.890;35.066;2022-08-19T04:17:12;99803.07;;;48.88;26.22
32067;BME280;18573;47.890;35.066;2022-08-19T04:19:41;99812.64;;;51.19;24.53
32067;BME280;18573;47.890;35.066;2022-08-19T04:22:11;99811.84;;;51.46;24.08
32067;BME280;18573;47.890;35.066;2022-08-19T04:24:40;99811.84;;;51.46;24.08
32067;BME280;18573;47.890;35.066;2022-08-19T04:27:09;99820.69;;;52.20;23.49
32067;BME280;18573;47.890;35.066;2022-08-19T04:29:38;99820.69;;;52.20;23.49
32067;BME280;18573;47.890;35.066;2022-08-19T04:32:08;99820.31;;;53.82;22.13
32067;BME280;18573;47.890;35.066;2022-08-19T04:34:38;99830.83;;;53.34;22.90
32067;BME280;18573;47.890;35.066;2022-08-19T04:37:09;99830.83;;;53.34;22.90
32067;BME280;18573;47.890;35.066;2022-08-19T04:39:39;99826.47;;;53.74;22.09
32067;BME280;18573;47.890;35.066;2022-08-19T04:42:28;99816.81;;;50.65;24.41
32067;BME280;18573;47.890;35.066;2022-08-19T04:45:08;99816.81;;;50.65;24.41
32067;BME280;18573;47.890;35.066;2022-08-19T04:47:41;99827.58;;;53.31;22.37
32067;BME280;18573;47.890;35.066;2022-08-19T04:50:13;99827.58;;;53.31;22.37
32067;BME280;18573;47.890;35.066;2022-08-19T04:52:42;99829.44;;;53.23;22.82
32067;BME280;18573;47.890;35.066;2022-08-19T04:55:12;99827.39;;;50.96;24.48
32067;BME280;18573;47.890;35.066;2022-08-19T04:57:42;99827.39;;;50.96;24.48
32067;BME280;18573;47.890;35.066;2022-08-19T05:00:12;99832.89;;;53.92;22.01
32067;BME280;18573;47.890;35.066;2022-08-19T05:02:41;99831.03;;;55.46;20.94
32067;BME280;18573;47.890;35.066;2022-08-19T05:05:10;99833.19;;;54.54;21.54
32067;BME280;18573;47.890;35.066;2022-08-19T05:07:40;99838.28;;;55.28;20.67
32067;BME280;18573;47.890;35.066;2022-08-19T05:10:10;99833.60;;;55.75;20.74
32067;BME280;18573;47.890;35.066;2022-08-19T05:12:40;99838.64;;;54.70;21.29
32067;BME280;18573;47.890;35.066;2022-08-19T05:15:09;99835.66;;;54.03;21.77
32067;BME280;18573;47.890;35.066;2022-08-19T05:17:39;99828.59;;;53.39;22.33
32067;BME280;18573;47.890;35.066;2022-08-19T05:20:10;99824.21;;;51.53;23.57
32067;BME280;18573;47.890;35.066;2022-08-19T05:22:57;99840.47;;;54.67;21.00
32067;BME280;18573;47.890;35.066;2022-08-19T05:25:26;99840.47;;;54.67;21.00
32067;BME280;18573;47.890;35.066;2022-08-19T05:27:56;99836.86;;;53.48;21.87
32067;BME280;18573;47.890;35.066;2022-08-19T05:30:25;99839.51;;;53.93;21.70
32067;BME280;18573;47.890;35.066;2022-08-19T05:32:56;99839.51;;;53.93;21.70
32067;BME280;18573;47.890;35.066;2022-08-19T05:35:25;99833.64;;;51.87;23.46
32067;BME280;18573;47.890;35.066;2022-08-19T05:37:57;99826.70;;;52.22;23.42
32067;BME280;18573;47.890;35.066;2022-08-19T05:40:26;99826.70;;;52.22;23.42
32067;BME280;18573;47.890;35.066;2022-08-19T05:42:56;99843.20;;;54.84;21.39
32067;BME280;18573;47.890;35.066;2022-08-19T05:45:25;99847.34;;;54.28;21.83
32067;BME280;18573;47.890;35.066;2022-08-19T05:47:55;99843.97;;;55.09;21.32
32067;BME280;18573;47.890;35.066;2022-08-19T05:50:25;99843.27;;;53.36;22.26
32067;BME280;18573;47.890;35.066;2022-08-19T05:52:55;99843.41;;;52.97;22.19
32067;BME280;18573;47.890;35.066;2022-08-19T05:55:24;99837.47;;;51.73;23.31
32067;BME280;18573;47.890;35.066;2022-08-19T05:57:53;99842.00;;;53.37;22.17
32067;BME280;18573;47.890;35.066;2022-08-19T06:00:23;99848.42;;;54.55;21.44
32067;BME280;18573;47.890;35.066;2022-08-19T06:02:52;99856.05;;;56.21;20.14
32067;BME280;18573;47.890;35.066;2022-08-19T06:05:23;99853.09;;;53.58;21.83
32067;BME280;18573;47.890;35.066;2022-08-19T06:07:52;99855.42;;;53.25;22.53
32067;BME280;18573;47.890;35.066;2022-08-19T06:10:22;99857.41;;;53.76;22.05
32067;BME280;18573;47.890;35.066;2022-08-19T06:12:52;99858.09;;;54.65;21.57
32067;BME280;18573;47.890;35.066;2022-08-19T06:15:21;99861.97;;;54.55;21.39
32067;BME280;18573;47.890;35.066;2022-08-19T06:17:52;99861.97;;;54.55;21.39
32067;BME280;18573;47.890;35.066;2022-08-19T06:20:21;99858.94;;;53.82;21.25
32067;BME280;18573;47.890;35.066;2022-08-19T06:22:52;99860.62;;;54.26;21.03
32067;BME280;18573;47.890;35.066;2022-08-19T06:25:22;99865.06;;;54.99;20.39
32067;BME280;18573;47.890;35.066;2022-08-19T06:27:52;99865.06;;;54.99;20.39
32067;BME280;18573;47.890;35.066;2022-08-19T06:30:23;99867.64;;;54.60;20.91
32067;BME280;18573;47.890;35.066;2022-08-19T06:32:53;99872.94;;;54.33;21.16
32067;BME280;18573;47.890;35.066;2022-08-19T06:35:22;99865.31;;;53.82;21.42
32067;BME280;18573;47.890;35.066;2022-08-19T06:37:51;99865.31;;;53.82;21.42
32067;BME280;18573;47.890;35.066;2022-08-19T06:40:22;99866.11;;;55.64;19.97
32067;BME280;18573;47.890;35.066;2022-08-19T06:42:51;99863.32;;;53.66;21.35
32067;BME280;18573;47.890;35.066;2022-08-19T06:45:23;99878.52;;;55.41;20.73
32067;BME280;18573;47.890;35.066;2022-08-19T06:47:55;99879.14;;;55.84;20.05
32067;BME280;18573;47.890;35.066;2022-08-19T06:50:24;99879.14;;;55.84;20.05
32067;BME280;18573;47.890;35.066;2022-08-19T06:52:54;99878.61;;;55.67;20.20
32067;BME280;18573;47.890;35.066;2022-08-19T06:55:23;99884.17;;;55.16;20.47
32067;BME280;18573;47.890;35.066;2022-08-19T06:57:52;99874.48;;;53.69;22.32
32067;BME280;18573;47.890;35.066;2022-08-19T07:00:21;99874.48;;;53.69;22.32
32067;BME280;18573;47.890;35.066;2022-08-19T07:02:51;99884.56;;;55.50;20.13
32067;BME280;18573;47.890;35.066;2022-08-19T07:05:22;99882.77;;;55.66;20.01
32067;BME280;18573;47.890;35.066;2022-08-19T07:07:51;99881.71;;;55.13;20.26
32067;BME280;18573;47.890;35.066;2022-08-19T07:10:22;99887.61;;;56.40;19.65
32067;BME280;18573;47.890;35.066;2022-08-19T07:12:52;99887.61;;;56.40;19.65
32067;BME280;18573;47.890;35.066;2022-08-19T07:15:22;99891.22;;;55.27;20.24
32067;BME280;18573;47.890;35.066;2022-08-19T07:17:51;99881.82;;;53.07;21.19
32067;BME280;18573;47.890;35.066;2022-08-19T07:20:22;99886.82;;;54.35;20.63
32067;BME280;18573;47.890;35.066;2022-08-19T07:22:53;99903.02;;;55.30;19.47
32067;BME280;18573;47.890;35.066;2022-08-19T07:25:22;99903.02;;;55.30;19.47
32067;BME280;18573;47.890;35.066;2022-08-19T07:27:53;99907.27;;;56.88;18.52
32067;BME280;18573;47.890;35.066;2022-08-19T07:30:23;99900.99;;;55.37;19.46
32067;BME280;18573;47.890;35.066;2022-08-19T07:32:53;99900.99;;;55.37;19.46
32067;BME280;18573;47.890;35.066;2022-08-19T07:35:22;99895.75;;;55.91;19.36
32067;BME280;18573;47.890;35.066;2022-08-19T07:37:52;99899.45;;;56.56;18.56
32067;BME280;18573;47.890;35.066;2022-08-19T07:40:22;99900.89;;;54.99;19.18
32067;BME280;18573;47.890;35.066;2022-08-19T07:42:52;99896.13;;;56.01;18.43
32067;BME280;18573;47.890;35.066;2022-08-19T07:45:21;99901.02;;;57.02;18.57
32067;BME280;18573;47.890;35.066;2022-08-19T07:47:50;99895.45;;;57.64;17.91
32067;BME280;18573;47.890;35.066;2022-08-19T07:50:20;99901.92;;;58.46;16.59
32067;BME280;18573;47.890;35.066;2022-08-19T07:52:50;99897.26;;;55.67;18.83
32067;BME280;18573;47.890;35.066;2022-08-19T07:55:23;99890.38;;;54.47;17.86
32067;BME280;18573;47.890;35.066;2022-08-19T07:57:53;99890.38;;;54.47;17.86
32067;BME280;18573;47.890;35.066;2022-08-19T08:00:22;99881.19;;;53.48;19.55
32067;BME280;18573;47.890;35.066;2022-08-19T08:02:53;99892.59;;;57.18;17.52
32067;BME280;18573;47.890;35.066;2022-08-19T08:05:23;99890.08;;;56.69;17.35
32067;BME280;18573;47.890;35.066;2022-08-19T08:08:13;99885.98;;;56.06;17.87
32067;BME280;18573;47.890;35.066;2022-08-19T08:11:01;99893.13;;;57.49;16.84
32067;BME280;18573;47.890;35.066;2022-08-19T08:13:32;99898.21;;;59.30;15.79
32067;BME280;18573;47.890;35.066;2022-08-19T08:16:04;99902.16;;;58.14;16.44
32067;BME280;18573;47.890;35.066;2022-08-19T08:18:36;99902.16;;;58.14;16.44
32067;BME280;18573;47.890;35.066;2022-08-19T08:21:07;99894.94;;;59.41;15.54
32067;BME280;18573;47.890;35.066;2022-08-19T08:23:37;99882.02;;;56.67;17.50
32067;BME280;18573;47.890;35.066;2022-08-19T08:26:06;99882.02;;;56.67;17.50
32067;BME280;18573;47.890;35.066;2022-08-19T08:28:35;99886.87;;;55.82;18.78
32067;BME280;18573;47.890;35.066;2022-08-19T08:31:05;99892.58;;;58.53;17.16
32067;BME280;18573;47.890;35.066;2022-08-19T08:33:36;99896.80;;;59.16;16.06
32067;BME280;18573;47.890;35.066;2022-08-19T08:36:08;99896.80;;;59.16;16.06
32067;BME280;18573;47.890;35.066;2022-08-19T08:38:38;99896.02;;;57.09;17.68
32067;BME280;18573;47.890;35.066;2022-08-19T08:44:03;99900.45;;;58.88;16.88
32067;BME280;18573;47.890;35.066;2022-08-19T08:46:42;99900.06;;;57.80;17.27
32067;BME280;18573;47.890;35.066;2022-08-19T08:49:20;99910.44;;;59.01;16.30
32067;BME280;18573;47.890;35.066;2022-08-19T08:52:06;99910.44;;;59.01;16.30
32067;BME280;18573;47.890;35.066;2022-08-19T08:54:44;99897.80;;;56.60;17.76
32067;BME280;18573;47.890;35.066;2022-08-19T08:57:24;99898.14;;;57.02;17.92
32067;BME280;18573;47.890;35.066;2022-08-19T08:59:51;99898.14;;;57.02;17.92
32067;BME280;18573;47.890;35.066;2022-08-19T09:02:22;99887.34;;;55.43;19.08
32067;BME280;18573;47.890;35.066;2022-08-19T09:04:51;99880.72;;;53.97;19.98
32067;BME280;18573;47.890;35.066;2022-08-19T09:07:26;99884.41;;;53.92;19.63
32067;BME280;18573;47.890;35.066;2022-08-19T09:10:04;99884.41;;;53.92;19.63
32067;BME280;18573;47.890;35.066;2022-08-19T09:12:36;99891.44;;;55.29;19.10
32067;BME280;18573;47.890;35.066;2022-08-19T09:15:09;99882.09;;;54.26;19.78
32067;BME280;18573;47.890;35.066;2022-08-19T09:17:39;99870.91;;;55.75;17.76
32067;BME280;18573;47.890;35.066;2022-08-19T09:20:14;99870.91;;;55.75;17.76
32067;BME280;18573;47.890;35.066;2022-08-19T09:22:44;99884.81;;;56.93;17.30
32067;BME280;18573;47.890;35.066;2022-08-19T09:25:16;99884.81;;;56.93;17.30
32067;BME280;18573;47.890;35.066;2022-08-19T09:27:48;99887.05;;;58.00;17.04
32067;BME280;18573;47.890;35.066;2022-08-19T09:30:20;99874.27;;;54.74;19.06
32067;BME280;18573;47.890;35.066;2022-08-19T09:32:50;99884.52;;;55.62;18.75
32067;BME280;18573;47.890;35.066;2022-08-19T09:35:23;99884.52;;;55.62;18.75
32067;BME280;18573;47.890;35.066;2022-08-19T09:37:54;99885.48;;;54.90;18.38
32067;BME280;18573;47.890;35.066;2022-08-19T09:40:30;99883.50;;;53.15;19.83
32067;BME280;18573;47.890;35.066;2022-08-19T09:43:01;99880.48;;;54.78;18.32
32067;BME280;18573;47.890;35.066;2022-08-19T09:45:32;99876.12;;;52.96;20.00
32067;BME280;18573;47.890;35.066;2022-08-19T09:48:01;99872.84;;;53.50;19.73
32067;BME280;18573;47.890;35.066;2022-08-19T09:50:30;99873.69;;;52.43;20.48
32067;BME280;18573;47.890;35.066;2022-08-19T09:53:01;99881.02;;;53.12;19.47
32067;BME280;18573;47.890;35.066;2022-08-19T09:55:32;99876.00;;;53.47;20.27
32067;BME280;18573;47.890;35.066;2022-08-19T09:58:02;99879.64;;;53.47;19.30
32067;BME280;18573;47.890;35.066;2022-08-19T10:00:31;99874.34;;;53.39;19.22
32067;BME280;18573;47.890;35.066;2022-08-19T10:03:00;99875.52;;;54.13;19.39
32067;BME280;18573;47.890;35.066;2022-08-19T10:05:30;99869.64;;;53.01;18.79
32067;BME280;18573;47.890;35.066;2022-08-19T10:08:25;99869.64;;;53.01;18.79
32067;BME280;18573;47.890;35.066;2022-08-19T10:10:55;99866.80;;;52.79;19.85
32067;BME280;18573;47.890;35.066;2022-08-19T10:13:27;99878.55;;;55.17;18.68
32067;BME280;18573;47.890;35.066;2022-08-19T10:16:06;99879.95;;;54.14;18.32
32067;BME280;18573;47.890;35.066;2022-08-19T10:18:38;99877.69;;;52.92;18.56
32067;BME280;18573;47.890;35.066;2022-08-19T10:23:48;99870.96;;;52.89;18.23
32067;BME280;18573;47.890;35.066;2022-08-19T10:26:28;99870.96;;;52.89;18.23
32067;BME280;18573;47.890;35.066;2022-08-19T10:28:57;99866.03;;;52.33;18.72
32067;BME280;18573;47.890;35.066;2022-08-19T10:31:29;99858.11;;;52.67;19.00
32067;BME280;18573;47.890;35.066;2022-08-19T10:34:01;99861.73;;;52.28;19.30
32067;BME280;18573;47.890;35.066;2022-08-19T10:36:33;99861.14;;;51.90;19.72
32067;BME280;18573;47.890;35.066;2022-08-19T10:39:09;99861.14;;;51.90;19.72
32067;BME280;18573;47.890;35.066;2022-08-19T10:41:40;99868.36;;;52.35;19.44
32067;BME280;18573;47.890;35.066;2022-08-19T10:44:12;99863.79;;;51.72;19.99
32067;BME280;18573;47.890;35.066;2022-08-19T10:46:44;99858.30;;;50.04;21.50
32067;BME280;18573;47.890;35.066;2022-08-19T10:49:16;99860.02;;;51.16;20.74
32067;BME280;18573;47.890;35.066;2022-08-19T10:51:46;99860.02;;;51.16;20.74
32067;BME280;18573;47.890;35.066;2022-08-19T10:54:35;99863.37;;;50.62;21.13
32067;BME280;18573;47.890;35.066;2022-08-19T10:57:22;99855.77;;;51.82;20.70
32067;BME280;18573;47.890;35.066;2022-08-19T10:59:56;99857.80;;;51.64;20.81
32067;BME280;18573;47.890;35.066;2022-08-19T11:02:26;99856.14;;;52.91;20.01
32067;BME280;18573;47.890;35.066;2022-08-19T11:04:55;99863.28;;;54.66;19.12
32067;BME280;18573;47.890;35.066;2022-08-19T11:07:25;99856.69;;;51.51;20.47
32067;BME280;18573;47.890;35.066;2022-08-19T11:09:54;99856.29;;;53.37;19.96
32067;BME280;18573;47.890;35.066;2022-08-19T11:12:24;99843.58;;;52.25;20.33
32067;BME280;18573;47.890;35.066;2022-08-19T11:14:53;99858.86;;;52.95;19.87
32067;BME280;18573;47.890;35.066;2022-08-19T11:17:22;99849.13;;;50.78;21.13
32067;BME280;18573;47.890;35.066;2022-08-19T11:19:51;99844.83;;;50.72;20.94
32067;BME280;18573;47.890;35.066;2022-08-19T11:22:22;99844.83;;;50.72;20.94
32067;BME280;18573;47.890;35.066;2022-08-19T11:24:53;99849.49;;;50.28;20.80
32067;BME280;18573;47.890;35.066;2022-08-19T11:27:23;99847.91;;;50.53;20.76
32067;BME280;18573;47.890;35.066;2022-08-19T11:29:52;99840.72;;;50.05;21.30
32067;BME280;18573;47.890;35.066;2022-08-19T11:32:21;99840.72;;;50.05;21.30
32067;BME280;18573;47.890;35.066;2022-08-19T11:34:51;99837.17;;;51.11;20.91
32067;BME280;18573;47.890;35.066;2022-08-19T11:37:20;99837.17;;;51.11;20.91
32067;BME280;18573;47.890;35.066;2022-08-19T11:39:49;99834.84;;;52.13;20.30
32067;BME280;18573;47.890;35.066;2022-08-19T11:42:20;99828.00;;;49.09;22.43
32067;BME280;18573;47.890;35.066;2022-08-19T11:45:07;99828.00;;;49.09;22.43
32067;BME280;18573;47.890;35.066;2022-08-19T11:47:36;99829.28;;;50.26;21.87
32067;BME280;18573;47.890;35.066;2022-08-19T11:50:06;99820.59;;;51.63;20.51
32067;BME280;18573;47.890;35.066;2022-08-19T11:52:36;99817.41;;;50.01;22.03
32067;BME280;18573;47.890;35.066;2022-08-19T11:55:07;99814.21;;;53.32;19.80
32067;BME280;18573;47.890;35.066;2022-08-19T11:57:36;99805.61;;;51.80;20.94
32067;BME280;18573;47.890;35.066;2022-08-19T12:00:06;99805.61;;;51.80;20.94
32067;BME280;18573;47.890;35.066;2022-08-19T12:02:37;99814.78;;;52.29;20.26
32067;BME280;18573;47.890;35.066;2022-08-19T12:05:07;99807.06;;;51.97;21.14
32067;BME280;18573;47.890;35.066;2022-08-19T12:07:38;99808.46;;;51.85;21.14
32067;BME280;18573;47.890;35.066;2022-08-19T12:10:09;99796.67;;;52.78;20.29
32067;BME280;18573;47.890;35.066;2022-08-19T12:12:38;99788.27;;;52.00;20.14
32067;BME280;18573;47.890;35.066;2022-08-19T12:15:10;99788.27;;;52.00;20.14
32067;BME280;18573;47.890;35.066;2022-08-19T12:17:44;99786.27;;;51.03;20.89
32067;BME280;18573;47.890;35.066;2022-08-19T12:20:11;99786.27;;;51.03;20.89
32067;BME280;18573;47.890;35.066;2022-08-19T12:22:42;99791.72;;;51.83;20.52
32067;BME280;18573;47.890;35.066;2022-08-19T12:25:12;99795.48;;;49.71;21.42
32067;BME280;18573;47.890;35.066;2022-08-19T12:27:41;99790.44;;;50.17;20.52
32067;BME280;18573;47.890;35.066;2022-08-19T12:30:12;99788.02;;;50.26;20.44
32067;BME280;18573;47.890;35.066;2022-08-19T12:32:42;99791.00;;;49.75;21.10
32067;BME280;18573;47.890;35.066;2022-08-19T12:35:11;99791.00;;;49.75;21.10
32067;BME280;18573;47.890;35.066;2022-08-19T12:37:40;99789.39;;;50.04;21.84
32067;BME280;18573;47.890;35.066;2022-08-19T12:40:16;99789.39;;;50.04;21.84
32067;BME280;18573;47.890;35.066;2022-08-19T12:42:46;99789.28;;;50.51;21.19
32067;BME280;18573;47.890;35.066;2022-08-19T12:45:17;99798.58;;;49.93;21.00
32067;BME280;18573;47.890;35.066;2022-08-19T12:47:47;99799.10;;;49.72;21.89
32067;BME280;18573;47.890;35.066;2022-08-19T12:50:18;99796.47;;;52.31;20.13
32067;BME280;18573;47.890;35.066;2022-08-19T12:52:49;99802.88;;;49.73;21.85
32067;BME280;18573;47.890;35.066;2022-08-19T12:55:18;99796.42;;;49.62;21.67
32067;BME280;18573;47.890;35.066;2022-08-19T12:57:48;99788.22;;;49.54;21.96
32067;BME280;18573;47.890;35.066;2022-08-19T13:00:20;99788.62;;;49.57;22.01
32067;BME280;18573;47.890;35.066;2022-08-19T13:02:51;99791.67;;;51.01;20.83
32067;BME280;18573;47.890;35.066;2022-08-19T13:05:23;99800.31;;;50.90;20.91
32067;BME280;18573;47.890;35.066;2022-08-19T13:07:54;99804.70;;;49.97;21.34
32067;BME280;18573;47.890;35.066;2022-08-19T13:10:27;99804.70;;;49.97;21.34
32067;BME280;18573;47.890;35.066;2022-08-19T13:12:57;99801.83;;;50.70;20.95
32067;BME280;18573;47.890;35.066;2022-08-19T13:15:27;99801.83;;;50.70;20.95
32067;BME280;18573;47.890;35.066;2022-08-19T13:17:58;99810.95;;;49.54;21.70
32067;BME280;18573;47.890;35.066;2022-08-19T13:20:27;99803.09;;;50.63;20.60
32067;BME280;18573;47.890;35.066;2022-08-19T13:22:56;99803.09;;;50.63;20.60
32067;BME280;18573;47.890;35.066;2022-08-19T13:25:26;99809.62;;;50.22;20.93
32067;BME280;18573;47.890;35.066;2022-08-19T13:27:55;99818.42;;;51.14;20.54
32067;BME280;18573;47.890;35.066;2022-08-19T13:30:24;99818.42;;;51.14;20.54
32067;BME280;18573;47.890;35.066;2022-08-19T13:33:12;99820.97;;;51.28;21.53
32067;BME280;18573;47.890;35.066;2022-08-19T13:35:50;99827.11;;;51.43;20.92
32067;BME280;18573;47.890;35.066;2022-08-19T13:38:21;99827.11;;;51.43;20.92
32067;BME280;18573;47.890;35.066;2022-08-19T13:40:52;99822.33;;;51.17;20.93
32067;BME280;18573;47.890;35.066;2022-08-19T13:43:25;99818.48;;;50.83;21.17
32067;BME280;18573;47.890;35.066;2022-08-19T13:45:56;99823.22;;;50.54;21.92
32067;BME280;18573;47.890;35.066;2022-08-19T13:48:26;99823.22;;;50.54;21.92
32067;BME280;18573;47.890;35.066;2022-08-19T13:50:55;99835.52;;;49.57;21.63
32067;BME280;18573;47.890;35.066;2022-08-19T13:53:25;99853.88;;;49.46;22.14
32067;BME280;18573;47.890;35.066;2022-08-19T13:55:54;99856.14;;;47.16;24.26
32067;BME280;18573;47.890;35.066;2022-08-19T13:58:24;99856.14;;;47.16;24.26
32067;BME280;18573;47.890;35.066;2022-08-19T14:00:53;99877.70;;;49.24;22.82
32067;BME280;18573;47.890;35.066;2022-08-19T14:03:22;99877.70;;;49.24;22.82
32067;BME280;18573;47.890;35.066;2022-08-19T14:05:51;99883.11;;;48.67;22.70
32067;BME280;18573;47.890;35.066;2022-08-19T14:08:20;99903.78;;;47.80;22.92
32067;BME280;18573;47.890;35.066;2022-08-19T14:10:50;99903.78;;;47.80;22.92
32067;BME280;18573;47.890;35.066;2022-08-19T14:13:21;99898.55;;;44.96;28.71
32067;BME280;18573;47.890;35.066;2022-08-19T14:15:50;99896.17;;;42.91;30.57
32067;BME280;18573;47.890;35.066;2022-08-19T14:18:20;99896.17;;;42.91;30.57
32067;BME280;18573;47.890;35.066;2022-08-19T14:20:52;99899.34;;;41.68;30.92
32067;BME280;18573;47.890;35.066;2022-08-19T14:23:23;99919.82;;;40.80;32.20
32067;BME280;18573;47.890;35.066;2022-08-19T14:25:52;99919.82;;;40.80;32.20
32067;BME280;18573;47.890;35.066;2022-08-19T14:28:24;99928.83;;;41.68;31.91
32067;BME280;18573;47.890;35.066;2022-08-19T14:30:54;99928.83;;;41.68;31.91
32067;BME280;18573;47.890;35.066;2022-08-19T14:33:24;99935.95;;;41.48;33.07
32067;BME280;18573;47.890;35.066;2022-08-19T14:35:54;99936.58;;;41.89;33.78
32067;BME280;18573;47.890;35.066;2022-08-19T14:38:25;99948.92;;;40.66;36.10
32067;BME280;18573;47.890;35.066;2022-08-19T14:43:48;99947.27;;;39.55;39.36
32067;BME280;18573;47.890;35.066;2022-08-19T14:46:25;99941.12;;;46.19;32.49
32067;BME280;18573;47.890;35.066;2022-08-19T14:48:52;99941.12;;;46.19;32.49
32067;BME280;18573;47.890;35.066;2022-08-19T14:51:24;99952.76;;;46.26;30.41
32067;BME280;18573;47.890;35.066;2022-08-19T14:53:55;99954.61;;;46.38;29.95
32067;BME280;18573;47.890;35.066;2022-08-19T14:56:28;99954.61;;;46.38;29.95
32067;BME280;18573;47.890;35.066;2022-08-19T14:58:57;99961.34;;;44.61;31.16
32067;BME280;18573;47.890;35.066;2022-08-19T15:01:28;99970.48;;;46.54;30.16
32067;BME280;18573;47.890;35.066;2022-08-19T15:03:57;99970.48;;;46.54;30.16
32067;BME280;18573;47.890;35.066;2022-08-19T15:06:27;99964.16;;;46.82;28.81
32067;BME280;18573;47.890;35.066;2022-08-19T15:08:57;99972.04;;;46.04;29.91
32067;BME280;18573;47.890;35.066;2022-08-19T15:11:28;99970.54;;;47.10;29.06
32067;BME280;18573;47.890;35.066;2022-08-19T15:14:00;99975.70;;;47.20;29.11
32067;BME280;18573;47.890;35.066;2022-08-19T15:16:30;99981.98;;;48.15;27.91
32067;BME280;18573;47.890;35.066;2022-08-19T15:18:59;99995.77;;;48.46;26.79
32067;BME280;18573;47.890;35.066;2022-08-19T15:21:29;99995.77;;;48.46;26.79
32067;BME280;18573;47.890;35.066;2022-08-19T15:23:59;100019.13;;;47.22;28.53
32067;BME280;18573;47.890;35.066;2022-08-19T15:26:29;100019.13;;;47.22;28.53
32067;BME280;18573;47.890;35.066;2022-08-19T15:29:00;100008.77;;;44.53;30.62
32067;BME280;18573;47.890;35.066;2022-08-19T15:31:30;100001.12;;;44.36;31.22
32067;BME280;18573;47.890;35.066;2022-08-19T15:34:03;100001.12;;;44.36;31.22
32067;BME280;18573;47.890;35.066;2022-08-19T15:36:34;100005.50;;;46.15;28.54
32067;BME280;18573;47.890;35.066;2022-08-19T15:39:04;100013.17;;;43.89;30.12
32067;BME280;18573;47.890;35.066;2022-08-19T15:41:34;100007.20;;;43.75;30.32
32067;BME280;18573;47.890;35.066;2022-08-19T15:44:07;100014.31;;;45.58;29.38
32067;BME280;18573;47.890;35.066;2022-08-19T15:46:40;100011.83;;;43.68;30.29
32067;BME280;18573;47.890;35.066;2022-08-19T15:49:12;100011.83;;;43.68;30.29
32067;BME280;18573;47.890;35.066;2022-08-19T15:51:43;99992.06;;;44.59;29.55
32067;BME280;18573;47.890;35.066;2022-08-19T15:54:15;99988.02;;;43.06;31.99